createdAt,value
2022-12-14T00:01:40.325Z,-6.90
2022-12-14T00:04:07.455Z,-5.80
2022-12-14T00:06:35.652Z,-7.10
2022-12-14T00:09:04.790Z,-6.60
2022-12-14T00:11:33.709Z,-7.10
2022-12-14T00:14:02.648Z,-5.00
2022-12-14T00:16:32.257Z,-7.20
2022-12-14T00:19:01.149Z,-6.50
2022-12-14T00:21:29.004Z,-7.20
2022-12-14T00:23:58.486Z,-5.70
2022-12-14T00:26:28.443Z,-5.60
2022-12-14T00:28:58.433Z,-7.20
2022-12-14T00:31:25.967Z,-7.30
2022-12-14T00:33:54.191Z,-7.30
2022-12-14T00:36:21.868Z,-6.90
2022-12-14T00:39:51.905Z,-5.60
2022-12-14T00:42:19.059Z,-7.30
2022-12-14T00:44:46.265Z,-5.50
2022-12-14T00:47:13.435Z,-7.40
2022-12-14T00:49:40.493Z,-6.70
2022-12-14T00:52:07.670Z,-5.00
2022-12-14T00:54:37.679Z,-5.40
2022-12-14T00:57:06.101Z,-7.30
2022-12-14T00:59:33.180Z,-7.30
2022-12-14T01:02:00.495Z,-6.20
2022-12-14T01:04:28.419Z,-7.50
2022-12-14T01:06:56.053Z,-7.40
2022-12-14T01:09:25.047Z,-5.40
2022-12-14T01:11:53.300Z,-5.80
2022-12-14T01:14:21.673Z,-7.50
2022-12-14T01:16:48.824Z,-7.50
2022-12-14T01:19:16.191Z,-7.60
2022-12-14T01:21:43.269Z,-7.10
2022-12-14T01:24:10.575Z,-7.60
2022-12-14T01:26:39.284Z,-7.60
2022-12-14T01:29:06.972Z,-7.60
2022-12-14T01:31:36.914Z,-6.90
2022-12-14T01:34:04.838Z,-7.70
2022-12-14T01:36:34.244Z,-6.60
2022-12-14T01:39:09.539Z,-7.30
2022-12-14T01:41:40.389Z,-7.70
2022-12-14T01:44:10.539Z,-7.90
2022-12-14T01:47:07.393Z,-7.90
2022-12-14T01:49:47.419Z,-7.90
2022-12-14T01:52:37.525Z,-7.90
2022-12-14T01:55:22.530Z,-7.90
2022-12-14T01:58:08.528Z,-8.00
2022-12-14T02:00:36.739Z,-8.00
2022-12-14T02:03:16.537Z,-7.10
2022-12-14T02:05:51.559Z,-8.00
2022-12-14T02:08:20.182Z,-7.60
2022-12-14T02:10:49.071Z,-7.60
2022-12-14T02:13:29.851Z,-8.10
2022-12-14T02:15:57.330Z,-8.00
2022-12-14T02:18:27.456Z,-6.60
2022-12-14T02:21:00.442Z,-6.20
2022-12-14T02:23:56.198Z,-8.10
2022-12-14T02:26:45.081Z,-8.10
2022-12-14T02:29:27.122Z,-8.10
2022-12-14T02:32:03.111Z,-6.70
2022-12-14T02:34:51.527Z,-7.20
2022-12-14T02:37:42.808Z,-8.00
2022-12-14T02:40:41.916Z,-8.00
2022-12-14T02:43:28.102Z,-8.00
2022-12-14T02:46:13.843Z,-6.40
2022-12-14T02:48:48.428Z,-7.50
2022-12-14T02:51:22.206Z,-6.70
2022-12-14T02:54:00.531Z,-8.10
2022-12-14T02:56:38.937Z,-8.10
2022-12-14T02:59:09.057Z,-8.00
2022-12-14T03:01:38.437Z,-8.00
2022-12-14T03:04:07.078Z,-5.90
2022-12-14T03:06:34.483Z,-7.30
2022-12-14T03:09:13.265Z,-6.60
2022-12-14T03:12:06.173Z,-6.60
2022-12-14T03:14:42.867Z,-8.00
2022-12-14T03:17:21.171Z,-7.90
2022-12-14T03:19:56.032Z,-8.00
2022-12-14T03:22:29.907Z,-6.40
2022-12-14T03:25:02.998Z,-8.00
2022-12-14T03:27:34.676Z,-6.90
2022-12-14T03:30:18.441Z,-8.10
2022-12-14T03:32:57.987Z,-8.00
2022-12-14T03:35:39.340Z,-8.00
2022-12-14T03:38:35.791Z,-8.10
2022-12-14T03:41:34.666Z,-8.10
2022-12-14T03:44:48.879Z,-8.10
2022-12-14T03:47:25.199Z,-8.00
2022-12-14T03:50:01.015Z,-8.10
2022-12-14T03:52:45.281Z,-8.00
2022-12-14T03:55:54.072Z,-6.20
2022-12-14T03:58:29.946Z,-8.00
2022-12-14T04:01:06.115Z,-7.60
2022-12-14T04:03:49.983Z,-8.10
2022-12-14T04:06:23.957Z,-6.30
2022-12-14T04:09:18.045Z,-8.10
2022-12-14T04:12:17.763Z,-8.00
2022-12-14T04:15:10.384Z,-7.10
2022-12-14T04:17:58.084Z,-6.10
2022-12-14T04:20:31.051Z,-6.70
2022-12-14T04:23:08.887Z,-8.10
2022-12-14T04:25:59.846Z,-8.00
2022-12-14T04:28:53.818Z,-7.10
2022-12-14T04:31:24.276Z,-7.80
2022-12-14T04:33:55.246Z,-6.70
2022-12-14T04:36:35.806Z,-7.90
2022-12-14T04:39:15.590Z,-8.00
2022-12-14T04:41:46.399Z,-7.90
2022-12-14T04:44:22.835Z,-7.90
2022-12-14T04:46:53.628Z,-6.30
2022-12-14T04:49:27.051Z,-7.90
2022-12-14T04:52:23.222Z,-7.70
2022-12-14T04:54:59.876Z,-7.90
2022-12-14T04:57:36.637Z,-6.40
2022-12-14T05:00:06.157Z,-8.00
2022-12-14T05:03:05.962Z,-7.80
2022-12-14T05:06:00.991Z,-7.90
2022-12-14T05:08:52.333Z,-7.80
2022-12-14T05:11:53.202Z,-7.90
2022-12-14T05:14:34.105Z,-7.80
2022-12-14T05:17:08.806Z,-7.80
2022-12-14T05:19:37.319Z,-6.20
2022-12-14T05:22:08.781Z,-6.90
2022-12-14T05:24:35.990Z,-7.60
2022-12-14T05:27:03.079Z,-7.00
2022-12-14T05:29:30.204Z,-6.50
2022-12-14T05:31:57.492Z,-7.70
2022-12-14T05:34:25.132Z,-7.80
2022-12-14T05:36:52.270Z,-5.50
2022-12-14T05:39:19.361Z,-6.50
2022-12-14T05:41:46.557Z,-6.70
2022-12-14T05:44:13.747Z,-7.80
2022-12-14T05:46:40.850Z,-7.90
2022-12-14T05:49:07.992Z,-7.80
2022-12-14T05:51:35.230Z,-7.70
2022-12-14T05:54:02.433Z,-7.80
2022-12-14T05:56:29.520Z,-7.90
2022-12-14T05:58:56.764Z,-7.90
2022-12-14T06:01:24.014Z,-5.70
2022-12-14T06:03:54.606Z,-7.80
2022-12-14T06:06:21.829Z,-5.80
2022-12-14T06:08:49.232Z,-5.90
2022-12-14T06:11:19.804Z,-6.20
2022-12-14T06:13:47.370Z,-7.80
2022-12-14T06:16:20.794Z,-6.90
2022-12-14T06:18:50.573Z,-7.90
2022-12-14T06:21:20.186Z,-6.60
2022-12-14T06:23:48.564Z,-6.50
2022-12-14T06:26:16.887Z,-6.60
2022-12-14T06:28:44.678Z,-7.90
2022-12-14T06:31:27.282Z,-8.00
2022-12-14T06:33:54.914Z,-7.90
2022-12-14T06:36:24.080Z,-7.80
2022-12-14T06:38:52.233Z,-7.90
2022-12-14T06:41:20.473Z,-6.90
2022-12-14T06:43:49.454Z,-7.90
2022-12-14T06:46:20.280Z,-6.10
2022-12-14T06:48:55.567Z,-6.70
2022-12-14T06:51:24.283Z,-7.80
2022-12-14T06:53:52.753Z,-6.10
2022-12-14T06:56:21.552Z,-7.90
2022-12-14T06:58:49.200Z,-6.40
2022-12-14T07:01:18.848Z,-7.80
2022-12-14T07:03:51.859Z,-6.80
2022-12-14T07:06:19.306Z,-7.80
2022-12-14T07:08:46.761Z,-5.80
2022-12-14T07:11:15.844Z,-7.40
2022-12-14T07:13:43.365Z,-5.90
2022-12-14T07:16:18.320Z,-7.50
2022-12-14T07:18:45.589Z,-7.80
2022-12-14T07:21:15.153Z,-6.70
2022-12-14T07:23:44.338Z,-7.80
2022-12-14T07:26:17.721Z,-7.80
2022-12-14T07:28:45.913Z,-7.40
2022-12-14T07:31:15.876Z,-7.20
2022-12-14T07:33:43.393Z,-7.60
2022-12-14T07:36:19.045Z,-7.60
2022-12-14T07:38:48.458Z,-6.00
2022-12-14T07:41:23.111Z,-7.50
2022-12-14T07:43:52.103Z,-7.50
2022-12-14T07:46:22.143Z,-6.40
2022-12-14T07:48:52.356Z,-6.90
2022-12-14T07:51:24.301Z,-7.40
2022-12-14T07:53:52.339Z,-7.40
2022-12-14T07:56:22.335Z,-7.50
2022-12-14T07:58:49.977Z,-6.70
2022-12-14T08:01:24.468Z,-6.30
2022-12-14T08:03:55.937Z,-7.20
2022-12-14T08:06:25.646Z,-7.20
2022-12-14T08:08:53.715Z,-7.20
2022-12-14T08:11:24.594Z,-7.20
2022-12-14T08:14:06.506Z,-7.20
2022-12-14T08:16:34.225Z,-7.20
2022-12-14T08:19:01.645Z,-7.20
2022-12-14T08:21:29.181Z,-7.20
2022-12-14T08:23:57.349Z,-7.30
2022-12-14T08:26:31.536Z,-5.20
2022-12-14T08:29:02.423Z,-7.30
2022-12-14T08:31:29.770Z,-6.00
2022-12-14T08:33:59.536Z,-7.20
2022-12-14T08:36:29.705Z,-7.00
2022-12-14T08:39:04.950Z,-7.00
2022-12-14T08:41:32.740Z,-5.40
2022-12-14T08:44:01.623Z,-7.00
2022-12-14T08:46:31.282Z,-6.70
2022-12-14T08:48:58.770Z,-6.80
2022-12-14T08:51:27.274Z,-6.70
2022-12-14T08:53:55.405Z,-7.80
2022-12-14T08:56:25.265Z,-6.60
2022-12-14T08:58:52.428Z,-5.40
2022-12-14T09:01:31.752Z,-6.60
2022-12-14T09:04:06.789Z,-5.20
2022-12-14T09:06:37.173Z,-6.30
2022-12-14T09:09:15.685Z,-6.20
2022-12-14T09:11:44.826Z,-6.10
2022-12-14T09:14:13.294Z,-4.60
2022-12-14T09:16:40.641Z,-6.10
2022-12-14T09:19:07.955Z,-6.00
2022-12-14T09:21:35.144Z,-4.90
2022-12-14T09:24:02.276Z,-5.90
2022-12-14T09:26:29.985Z,-5.90
2022-12-14T09:29:01.192Z,-3.90
2022-12-14T09:31:28.839Z,-4.00
2022-12-14T09:33:56.923Z,-4.70
2022-12-14T09:36:26.902Z,-5.70
2022-12-14T09:38:55.526Z,-5.70
2022-12-14T09:41:35.080Z,-5.70
2022-12-14T09:44:26.584Z,-5.00
2022-12-14T09:47:32.685Z,-5.70
2022-12-14T09:50:06.489Z,-4.30
2022-12-14T09:52:44.388Z,-4.70
2022-12-14T09:55:28.027Z,-5.50
2022-12-14T09:58:26.025Z,-5.50
2022-12-14T10:01:22.464Z,-5.40
2022-12-14T10:03:56.323Z,-5.40
2022-12-14T10:06:38.443Z,-3.30
2022-12-14T10:09:26.085Z,-4.70
2022-12-14T10:12:14.326Z,-4.00
2022-12-14T10:15:03.480Z,-5.30
2022-12-14T10:17:34.526Z,-5.20
2022-12-14T10:20:13.128Z,-3.60
2022-12-14T10:22:45.377Z,-5.00
2022-12-14T10:25:27.977Z,-3.00
2022-12-14T10:28:12.157Z,-3.10
2022-12-14T10:30:42.473Z,-3.80
2022-12-14T10:33:29.723Z,-5.00
2022-12-14T10:36:12.100Z,-4.90
2022-12-14T10:38:59.833Z,-4.70
2022-12-14T10:41:43.959Z,-4.20
2022-12-14T10:44:43.754Z,-4.50
2022-12-14T10:47:23.337Z,-4.50
2022-12-14T10:50:20.677Z,-4.70
2022-12-14T10:52:51.031Z,-4.60
2022-12-14T10:55:27.048Z,-3.60
2022-12-14T10:57:54.140Z,-4.40
2022-12-14T11:00:23.388Z,-3.30
2022-12-14T11:02:55.092Z,-3.40
2022-12-14T11:05:43.146Z,-4.30
2022-12-14T11:08:10.206Z,-4.30
2022-12-14T11:10:41.122Z,-3.00
2022-12-14T11:13:17.823Z,-3.00
2022-12-14T11:15:47.433Z,-4.30
2022-12-14T11:18:17.751Z,-4.10
2022-12-14T11:20:57.471Z,-3.90
2022-12-14T11:23:38.025Z,-3.00
2022-12-14T11:26:10.267Z,-4.00
2022-12-14T11:28:50.125Z,-2.40
2022-12-14T11:31:45.205Z,-2.90
2022-12-14T11:34:34.914Z,-3.90
2022-12-14T11:37:13.277Z,-4.10
2022-12-14T11:39:45.260Z,-3.10
2022-12-14T11:42:19.175Z,-3.10
2022-12-14T11:44:48.091Z,-3.00
2022-12-14T11:47:22.495Z,-3.20
2022-12-14T11:49:56.914Z,-1.80
2022-12-14T11:52:42.111Z,-3.80
2022-12-14T11:55:26.673Z,-2.90
2022-12-14T11:57:59.268Z,-3.80
2022-12-14T12:00:58.662Z,-2.80
2022-12-14T12:03:31.446Z,-2.50
2022-12-14T12:06:10.360Z,-3.50
2022-12-14T12:08:40.085Z,-2.10
2022-12-14T12:11:18.237Z,-2.70
2022-12-14T12:13:48.540Z,-3.40
2022-12-14T12:16:21.259Z,-2.50
2022-12-14T12:18:53.702Z,-3.30
2022-12-14T12:21:32.112Z,-2.50
2022-12-14T12:24:15.524Z,-3.00
2022-12-14T12:26:55.633Z,-3.20
2022-12-14T12:29:48.220Z,-3.20
2022-12-14T12:32:21.803Z,-3.10
2022-12-14T12:35:01.359Z,-2.10
2022-12-14T12:37:41.125Z,-2.00
2022-12-14T12:40:21.465Z,-2.10
2022-12-14T12:42:51.924Z,-3.10
2022-12-14T12:45:37.442Z,-3.00
2022-12-14T12:48:13.720Z,-3.00
2022-12-14T12:50:49.939Z,-3.00
2022-12-14T12:53:29.266Z,-2.90
2022-12-14T12:56:06.464Z,-2.60
2022-12-14T12:58:35.449Z,-1.80
2022-12-14T13:01:13.870Z,-2.90
2022-12-14T13:03:45.968Z,-2.90
2022-12-14T13:06:24.943Z,-2.00
2022-12-14T13:09:00.747Z,-2.20
2022-12-14T13:11:32.681Z,-2.80
2022-12-14T13:14:26.321Z,-2.80
2022-12-14T13:16:55.335Z,-2.80
2022-12-14T13:19:50.666Z,-2.00
2022-12-14T13:22:27.607Z,-2.60
2022-12-14T13:24:59.793Z,-2.90
2022-12-14T13:27:57.569Z,-1.90
2022-12-14T13:30:53.731Z,-2.80
2022-12-14T13:33:34.052Z,-2.80
2022-12-14T13:36:26.725Z,-2.10
2022-12-14T13:39:08.858Z,-1.60
2022-12-14T13:42:11.331Z,-2.80
2022-12-14T13:45:01.485Z,-2.80
2022-12-14T13:47:35.360Z,-2.70
2022-12-14T13:50:34.752Z,-2.70
2022-12-14T13:52:57.800Z,-2.80
2022-12-14T13:55:24.822Z,-1.90
2022-12-14T13:57:52.319Z,-1.80
2022-12-14T14:00:54.908Z,-1.90
2022-12-14T14:03:37.658Z,-2.70
2022-12-14T14:06:55.411Z,-2.80
2022-12-14T14:09:34.420Z,-2.70
2022-12-14T14:12:05.886Z,-2.70
2022-12-14T14:14:57.815Z,-2.70
2022-12-14T14:17:37.719Z,-2.70
2022-12-14T14:20:41.011Z,-2.80
2022-12-14T14:23:14.293Z,-2.80
2022-12-14T14:25:52.897Z,-1.70
2022-12-14T14:28:23.236Z,-2.80
2022-12-14T14:30:54.302Z,-2.80
2022-12-14T14:33:47.382Z,-2.70
2022-12-14T14:36:23.786Z,-2.80
2022-12-14T14:38:52.035Z,-2.80
2022-12-14T14:41:28.181Z,-2.80
2022-12-14T14:44:00.265Z,-1.60
2022-12-14T14:46:39.465Z,-2.70
2022-12-14T14:49:18.698Z,-2.60
2022-12-14T14:51:45.887Z,-1.80
2022-12-14T14:55:03.672Z,-2.40
2022-12-14T14:57:54.485Z,-2.80
2022-12-14T15:00:23.006Z,-2.90
2022-12-14T15:02:53.388Z,-1.90
2022-12-14T15:05:44.735Z,-1.50
2022-12-14T15:08:37.253Z,-2.70
2022-12-14T15:11:11.829Z,-2.80
2022-12-14T15:14:00.940Z,-2.80
2022-12-14T15:16:34.229Z,-2.80
2022-12-14T15:19:30.416Z,-2.80
2022-12-14T15:22:03.049Z,-2.80
2022-12-14T15:24:37.593Z,-2.00
2022-12-14T15:27:09.078Z,-2.80
2022-12-14T15:29:36.857Z,-2.80
2022-12-14T15:32:05.421Z,-2.80
2022-12-14T15:34:32.580Z,-2.90
2022-12-14T15:36:59.811Z,-2.90
2022-12-14T15:39:40.091Z,-2.00
2022-12-14T15:42:13.514Z,-2.80
2022-12-14T15:44:49.503Z,-2.70
2022-12-14T15:47:30.874Z,-2.50
2022-12-14T15:50:17.613Z,-2.80
2022-12-14T15:52:45.886Z,-2.10
2022-12-14T15:55:38.452Z,-2.00
2022-12-14T15:58:30.392Z,-2.60
2022-12-14T16:01:05.727Z,-2.90
2022-12-14T16:03:41.157Z,-2.10
2022-12-14T16:06:10.822Z,-2.00
2022-12-14T16:08:58.950Z,-1.80
2022-12-14T16:11:35.306Z,-2.80
2022-12-14T16:14:09.939Z,-2.70
2022-12-14T16:16:37.295Z,-1.20
2022-12-14T16:19:25.858Z,-1.40
2022-12-14T16:22:09.400Z,-2.80
2022-12-14T16:24:38.325Z,-1.90
2022-12-14T16:27:05.472Z,-2.30
2022-12-14T16:29:34.360Z,-1.80
2022-12-14T16:32:07.595Z,-2.60
2022-12-14T16:34:35.268Z,-2.80
2022-12-14T16:39:53.924Z,-1.90
2022-12-14T16:42:26.399Z,-2.10
2022-12-14T16:44:54.899Z,-1.90
2022-12-14T16:47:25.218Z,-1.70
2022-12-14T16:49:55.567Z,-2.70
2022-12-14T16:52:31.829Z,-2.70
2022-12-14T16:55:15.041Z,-2.60
2022-12-14T16:57:48.133Z,-2.70
2022-12-14T17:00:21.687Z,-1.80
2022-12-14T17:03:03.839Z,-2.60
2022-12-14T17:05:34.738Z,-1.70
2022-12-14T17:08:02.297Z,-2.40
2022-12-14T17:10:30.730Z,-1.60
2022-12-14T17:12:59.312Z,-2.30
2022-12-14T17:15:29.559Z,-1.70
2022-12-14T17:17:59.058Z,-2.60
2022-12-14T17:20:31.611Z,-1.90
2022-12-14T17:23:01.966Z,-1.80
2022-12-14T17:25:31.354Z,-2.60
2022-12-14T17:27:59.855Z,-2.00
2022-12-14T17:30:27.383Z,-2.60
2022-12-14T17:32:55.782Z,-2.00
2022-12-14T17:35:33.788Z,-2.60
2022-12-14T17:38:00.900Z,-2.60
2022-12-14T17:40:28.390Z,-1.90
2022-12-14T17:42:57.833Z,-2.60
2022-12-14T17:45:28.264Z,-2.00
2022-12-14T17:47:56.399Z,-2.60
2022-12-14T17:50:23.867Z,-2.70
2022-12-14T17:52:51.381Z,-2.30
2022-12-14T17:55:22.127Z,-2.60
2022-12-14T17:57:50.044Z,-2.10
2022-12-14T18:00:44.416Z,-1.60
2022-12-14T18:03:12.975Z,-2.60
2022-12-14T18:05:48.014Z,-2.10
2022-12-14T18:08:24.394Z,-1.80
2022-12-14T18:10:55.487Z,-2.70
2022-12-14T18:13:22.650Z,-2.40
2022-12-14T18:15:52.136Z,-1.60
2022-12-14T18:18:25.187Z,-2.50
2022-12-14T18:20:55.765Z,-1.20
2022-12-14T18:23:22.970Z,-2.50
2022-12-14T18:25:58.597Z,-1.90
2022-12-14T18:28:25.925Z,-1.50
2022-12-14T18:30:59.051Z,-2.20
2022-12-14T18:33:28.064Z,-1.70
2022-12-14T18:35:56.796Z,-2.60
2022-12-14T18:38:24.865Z,-1.60
2022-12-14T18:40:54.193Z,-2.60
2022-12-14T18:43:24.525Z,-2.60
2022-12-14T18:45:53.545Z,-2.60
2022-12-14T18:48:21.752Z,-1.70
2022-12-14T18:50:50.088Z,-2.50
2022-12-14T18:53:19.040Z,-2.70
2022-12-14T18:55:47.078Z,-2.60
2022-12-14T18:58:28.607Z,-2.50
2022-12-14T19:00:58.590Z,-2.70
2022-12-14T19:03:27.259Z,-2.70
2022-12-14T19:06:34.788Z,-2.60
2022-12-14T19:08:53.603Z,-2.70
2022-12-14T19:11:31.988Z,-2.70
2022-12-14T19:13:59.284Z,-1.60
2022-12-14T19:16:26.438Z,-1.50
2022-12-14T19:18:53.793Z,-2.70
2022-12-14T19:21:21.213Z,-1.80
2022-12-14T19:23:48.283Z,-2.70
2022-12-14T19:26:15.428Z,-2.70
2022-12-14T19:28:42.616Z,-1.60
2022-12-14T19:31:11.065Z,-1.80
2022-12-14T19:33:38.585Z,-2.70
2022-12-14T19:36:08.713Z,-1.50
2022-12-14T19:38:36.461Z,-2.70
2022-12-14T19:41:07.036Z,-1.80
2022-12-14T19:43:35.030Z,-2.70
2022-12-14T19:46:10.911Z,-2.70
2022-12-14T19:48:38.287Z,-2.70
2022-12-14T19:51:11.163Z,-2.70
2022-12-14T19:53:39.854Z,-1.60
2022-12-14T19:56:07.649Z,-2.70
2022-12-14T19:58:34.831Z,-2.70
2022-12-14T20:01:01.944Z,-1.60
2022-12-14T20:03:29.737Z,-2.20
2022-12-14T20:05:58.909Z,-2.10
2022-12-14T20:08:27.931Z,-2.70
2022-12-14T20:10:56.111Z,-2.80
2022-12-14T20:13:24.693Z,-1.90
2022-12-14T20:15:54.283Z,-2.00
2022-12-14T20:18:24.113Z,-2.90
2022-12-14T20:20:52.254Z,-2.00
2022-12-14T20:23:21.664Z,-1.80
2022-12-14T20:25:50.271Z,-2.90
2022-12-14T20:28:17.414Z,-1.60
2022-12-14T20:30:45.827Z,-1.30
2022-12-14T20:33:13.570Z,-1.80
2022-12-14T20:35:40.678Z,-2.50
2022-12-14T20:38:07.738Z,-2.70
2022-12-14T20:40:38.607Z,-2.90
2022-12-14T20:43:07.451Z,-2.90
2022-12-14T20:45:39.189Z,-2.80
2022-12-14T20:48:07.173Z,-2.00
2022-12-14T20:50:36.238Z,-2.90
2022-12-14T20:53:03.547Z,-2.50
2022-12-14T20:55:30.727Z,-2.10
2022-12-14T20:57:57.833Z,-1.70
2022-12-14T21:00:25.136Z,-2.80
2022-12-14T21:02:52.426Z,-2.00
2022-12-14T21:05:19.606Z,-1.90
2022-12-14T21:07:46.803Z,-2.80
2022-12-14T21:10:13.997Z,-1.50
2022-12-14T21:12:41.111Z,-2.80
2022-12-14T21:15:08.599Z,-2.80
2022-12-14T21:17:35.806Z,-2.90
2022-12-14T21:20:03.656Z,-2.80
2022-12-14T21:22:30.866Z,-2.80
2022-12-14T21:25:04.431Z,-2.30
2022-12-14T21:27:32.694Z,-2.60
2022-12-14T21:30:00.803Z,-2.90
2022-12-14T21:32:28.403Z,-2.10
2022-12-14T21:34:55.478Z,-2.80
2022-12-14T21:37:22.813Z,-1.70
2022-12-14T21:39:54.828Z,-2.80
2022-12-14T21:42:23.867Z,-1.80
2022-12-14T21:44:52.894Z,-1.90
2022-12-14T21:47:23.538Z,-2.30
2022-12-14T21:49:50.816Z,-2.80
2022-12-14T21:52:20.900Z,-2.80
2022-12-14T21:54:48.337Z,-2.80
2022-12-14T21:57:36.358Z,-2.20
2022-12-14T22:00:06.057Z,-2.90
2022-12-14T22:02:39.867Z,-2.90
2022-12-14T22:05:07.629Z,-1.90
2022-12-14T22:07:35.103Z,-2.90
2022-12-14T22:10:02.352Z,-1.60
2022-12-14T22:12:29.528Z,-2.30
2022-12-14T22:14:56.597Z,-2.80
2022-12-14T22:17:23.861Z,-2.30
2022-12-14T22:19:52.215Z,-3.00
2022-12-14T22:22:19.308Z,-2.20
2022-12-14T22:24:49.642Z,-3.00
2022-12-14T22:27:17.016Z,-2.30
2022-12-14T22:29:44.293Z,-1.60
2022-12-14T22:32:12.373Z,-2.60
2022-12-14T22:34:39.647Z,-2.90
2022-12-14T22:37:06.895Z,-1.90
2022-12-14T22:39:34.196Z,-3.00
2022-12-14T22:42:01.247Z,-2.10
2022-12-14T22:44:28.404Z,-1.80
2022-12-14T22:46:55.486Z,-3.00
2022-12-14T22:49:22.745Z,-3.00
2022-12-14T22:51:50.717Z,-3.00
2022-12-14T22:54:27.735Z,-2.60
2022-12-14T22:56:57.781Z,-2.80
2022-12-14T22:59:36.454Z,-2.70
2022-12-14T23:02:04.288Z,-2.40
2022-12-14T23:04:31.868Z,-2.20
2022-12-14T23:06:59.117Z,-2.10
2022-12-14T23:09:44.673Z,-2.00
2022-12-14T23:12:30.226Z,-3.00
2022-12-14T23:15:15.637Z,-2.60
2022-12-14T23:18:01.016Z,-2.70
2022-12-14T23:20:46.349Z,-2.50
2022-12-14T23:23:32.151Z,-2.80
2022-12-14T23:26:22.549Z,-2.00
2022-12-14T23:29:08.052Z,-2.80
2022-12-14T23:31:54.090Z,-2.40
2022-12-14T23:34:39.587Z,-2.70
2022-12-14T23:37:25.090Z,-2.70
2022-12-14T23:40:10.658Z,-3.00
2022-12-14T23:42:56.187Z,-3.10
2022-12-14T23:45:41.711Z,-3.10
2022-12-14T23:48:27.544Z,-3.70
2022-12-14T23:51:13.034Z,-2.90
2022-12-14T23:53:58.671Z,-4.20
2022-12-14T23:56:44.118Z,-3.00
2022-12-14T23:59:32.303Z,-3.10
